createdAt,value
2023-02-16T00:01:18.410Z,27.63
2023-02-16T00:06:25.261Z,31.70
2023-02-16T00:11:44.232Z,32.67
2023-02-16T00:16:50.778Z,31.77
2023-02-16T00:21:58.813Z,36.30
2023-02-16T00:27:04.444Z,35.93
2023-02-16T00:32:13.802Z,36.17
2023-02-16T00:37:21.050Z,41.33
2023-02-16T00:42:29.616Z,41.43
2023-02-16T00:47:41.833Z,40.37
2023-02-16T00:52:48.627Z,41.90
2023-02-16T00:57:56.798Z,38.67
2023-02-16T01:03:05.473Z,41.90
2023-02-16T01:08:31.979Z,38.93
2023-02-16T01:13:43.430Z,40.27
2023-02-16T01:18:50.032Z,39.47
2023-02-16T01:23:57.322Z,39.07
2023-02-16T01:29:02.776Z,33.80
2023-02-16T01:34:08.178Z,37.20
2023-02-16T01:39:16.476Z,35.80
2023-02-16T01:44:26.647Z,32.83
2023-02-16T01:49:32.384Z,25.20
2023-02-16T01:54:46.551Z,35.00
2023-02-16T01:59:57.877Z,35.47
2023-02-16T02:05:36.169Z,35.77
2023-02-16T02:11:03.068Z,33.33
2023-02-16T02:16:12.658Z,36.33
2023-02-16T02:22:03.428Z,44.00
2023-02-16T02:27:15.020Z,42.83
2023-02-16T02:32:41.329Z,42.10
2023-02-16T02:37:55.793Z,65.47
2023-02-16T02:43:16.712Z,60.90
2023-02-16T02:48:23.112Z,58.23
2023-02-16T02:53:29.120Z,54.73
2023-02-16T02:58:55.476Z,54.30
2023-02-16T03:04:02.398Z,46.63
2023-02-16T03:09:25.810Z,35.40
2023-02-16T03:14:49.390Z,32.73
2023-02-16T03:20:14.844Z,32.03
2023-02-16T03:25:40.060Z,33.57
2023-02-16T03:30:47.979Z,31.63
2023-02-16T03:35:54.714Z,29.50
2023-02-16T03:41:00.846Z,26.90
2023-02-16T03:46:06.673Z,25.90
2023-02-16T03:51:12.141Z,24.83
2023-02-16T03:56:17.825Z,23.63
2023-02-16T04:01:23.217Z,26.27
2023-02-16T04:06:28.902Z,25.07
2023-02-16T04:11:52.348Z,22.70
2023-02-16T04:16:57.830Z,21.03
2023-02-16T04:22:03.230Z,23.60
2023-02-16T04:27:09.135Z,22.87
2023-02-16T04:32:14.911Z,22.83
2023-02-16T04:37:21.080Z,23.00
2023-02-16T04:42:26.680Z,22.47
2023-02-16T04:47:33.137Z,23.93
2023-02-16T04:52:39.068Z,24.63
2023-02-16T04:57:44.607Z,23.97
2023-02-16T05:02:50.169Z,24.27
2023-02-16T05:07:55.635Z,23.27
2023-02-16T05:13:19.388Z,24.40
2023-02-16T05:18:24.979Z,23.80
2023-02-16T05:23:30.515Z,25.93
2023-02-16T05:28:36.121Z,19.50
2023-02-16T05:33:41.622Z,26.57
2023-02-16T05:38:47.728Z,26.53
2023-02-16T05:43:54.925Z,25.97
2023-02-16T05:49:01.480Z,27.57
2023-02-16T05:54:07.376Z,25.90
2023-02-16T05:59:13.413Z,26.10
2023-02-16T06:04:19.373Z,23.53
2023-02-16T06:09:24.832Z,21.70
2023-02-16T06:14:30.633Z,22.60
2023-02-16T06:19:36.763Z,23.77
2023-02-16T06:24:42.281Z,23.80
2023-02-16T06:29:47.934Z,25.33
2023-02-16T06:34:53.497Z,21.80
2023-02-16T06:39:58.972Z,24.67
2023-02-16T06:45:05.800Z,24.30
2023-02-16T06:50:13.998Z,25.53
2023-02-16T06:55:19.664Z,23.07
2023-02-16T07:00:25.256Z,22.20
2023-02-16T07:05:31.125Z,21.87
2023-02-16T07:10:49.086Z,21.70
2023-02-16T07:15:43.915Z,23.50
2023-02-16T07:20:49.470Z,23.57
2023-02-16T07:25:55.058Z,22.67
2023-02-16T07:31:02.236Z,21.20
2023-02-16T07:36:09.368Z,21.83
2023-02-16T07:41:14.957Z,22.93
2023-02-16T07:46:20.742Z,21.53
2023-02-16T07:51:28.583Z,21.13
2023-02-16T07:56:35.327Z,21.40
2023-02-16T08:01:41.712Z,20.23
2023-02-16T08:06:48.793Z,23.07
2023-02-16T08:11:54.362Z,21.00
2023-02-16T08:16:59.969Z,23.33
2023-02-16T08:22:06.677Z,22.43
2023-02-16T08:27:12.317Z,21.43
2023-02-16T08:32:17.886Z,20.97
2023-02-16T08:37:24.933Z,20.47
2023-02-16T08:42:30.395Z,23.20
2023-02-16T08:47:36.669Z,23.10
2023-02-16T08:52:42.101Z,20.80
2023-02-16T08:57:47.502Z,20.53
2023-02-16T09:02:53.027Z,15.20
2023-02-16T09:07:58.779Z,21.40
2023-02-16T09:13:05.572Z,21.63
2023-02-16T09:18:12.726Z,20.60
2023-02-16T09:23:19.207Z,23.33
2023-02-16T09:28:24.680Z,21.67
2023-02-16T09:33:30.484Z,22.63
2023-02-16T09:38:36.775Z,22.43
2023-02-16T09:44:06.889Z,22.07
2023-02-16T09:49:38.091Z,20.73
2023-02-16T09:54:55.965Z,21.00
2023-02-16T10:00:16.360Z,20.83
2023-02-16T10:05:31.555Z,21.63
2023-02-16T10:10:46.084Z,20.07
2023-02-16T10:15:54.077Z,20.67
2023-02-16T10:21:03.093Z,20.07
2023-02-16T10:26:33.000Z,20.70
2023-02-16T10:31:42.827Z,21.27
2023-02-16T10:37:15.812Z,21.03
2023-02-16T10:42:24.289Z,20.03
2023-02-16T10:47:32.793Z,19.70
2023-02-16T10:52:42.532Z,21.70
2023-02-16T10:57:54.291Z,21.90
2023-02-16T11:03:03.230Z,20.57
2023-02-16T11:08:11.806Z,22.40
2023-02-16T11:13:35.161Z,20.70
2023-02-16T11:18:43.829Z,22.17
2023-02-16T11:23:58.399Z,24.43
2023-02-16T11:29:10.131Z,24.93
2023-02-16T11:34:18.753Z,23.33
2023-02-16T11:39:27.250Z,22.17
2023-02-16T11:44:46.536Z,25.90
2023-02-16T11:49:54.633Z,26.00
2023-02-16T11:55:03.304Z,20.10
2023-02-16T12:00:22.208Z,26.97
2023-02-16T12:05:58.404Z,26.13
2023-02-16T12:11:28.315Z,23.70
2023-02-16T12:16:48.968Z,24.50
2023-02-16T12:21:57.442Z,26.17
2023-02-16T12:27:08.917Z,25.13
2023-02-16T12:32:40.410Z,26.30
2023-02-16T12:38:13.580Z,25.57
2023-02-16T12:43:37.193Z,25.60
2023-02-16T12:48:51.557Z,28.13
2023-02-16T12:54:20.131Z,25.10
2023-02-16T12:59:57.516Z,26.77
2023-02-16T13:05:07.724Z,25.30
2023-02-16T13:10:24.991Z,26.97
2023-02-16T13:15:43.000Z,25.80
2023-02-16T13:20:52.915Z,24.87
2023-02-16T13:26:05.122Z,23.53
2023-02-16T13:31:25.765Z,26.40
2023-02-16T13:36:52.611Z,24.30
2023-02-16T13:42:01.642Z,24.13
2023-02-16T13:47:10.664Z,23.83
2023-02-16T13:52:43.692Z,24.53
2023-02-16T13:57:54.055Z,24.93
2023-02-16T14:03:10.361Z,24.10
2023-02-16T14:08:18.120Z,24.07
2023-02-16T14:13:32.277Z,24.03
2023-02-16T14:18:47.168Z,22.57
2023-02-16T14:23:58.517Z,22.63
2023-02-16T14:29:09.661Z,22.00
2023-02-16T14:34:21.556Z,19.97
2023-02-16T14:39:29.730Z,23.20
2023-02-16T14:44:43.946Z,24.53
2023-02-16T14:50:26.671Z,23.07
2023-02-16T14:55:51.347Z,25.87
2023-02-16T15:01:08.871Z,21.33
2023-02-16T15:06:17.450Z,21.83
2023-02-16T15:11:26.302Z,22.50
2023-02-16T15:16:34.154Z,23.23
2023-02-16T15:21:40.400Z,22.03
2023-02-16T15:26:48.958Z,22.37
2023-02-16T15:31:56.181Z,22.87
2023-02-16T15:37:03.186Z,22.70
2023-02-16T15:42:19.395Z,21.73
2023-02-16T15:47:27.252Z,21.43
2023-02-16T15:52:37.900Z,23.37
2023-02-16T15:57:45.538Z,23.47
2023-02-16T16:02:54.029Z,22.33
2023-02-16T16:08:01.415Z,21.33
2023-02-16T16:13:15.731Z,21.80
2023-02-16T16:18:43.301Z,21.97
2023-02-16T16:24:03.702Z,23.97
2023-02-16T16:29:30.181Z,24.57
2023-02-16T16:34:41.467Z,21.17
2023-02-16T16:39:51.366Z,19.57
2023-02-16T16:45:00.120Z,21.50
2023-02-16T16:50:15.017Z,18.90
2023-02-16T16:55:26.509Z,20.20
2023-02-16T17:00:38.568Z,20.77
2023-02-16T17:05:44.953Z,20.57
2023-02-16T17:10:50.874Z,19.03
2023-02-16T17:15:59.538Z,19.60
2023-02-16T17:21:05.454Z,21.43
2023-02-16T17:26:12.122Z,20.60
2023-02-16T17:31:18.188Z,21.33
2023-02-16T17:36:25.919Z,23.07
2023-02-16T17:41:31.651Z,22.30
2023-02-16T17:46:37.323Z,20.20
2023-02-16T17:51:43.073Z,20.07
2023-02-16T17:56:49.287Z,21.00
2023-02-16T18:01:54.996Z,19.50
2023-02-16T18:07:00.473Z,20.67
2023-02-16T18:12:06.488Z,22.00
2023-02-16T18:17:15.130Z,20.33
2023-02-16T18:22:20.587Z,18.80
2023-02-16T18:27:29.413Z,19.90
2023-02-16T18:32:35.060Z,18.20
2023-02-16T18:37:40.929Z,19.87
2023-02-16T18:42:47.300Z,18.87
2023-02-16T18:47:52.936Z,18.50
2023-02-16T18:52:58.556Z,19.13
2023-02-16T18:58:08.271Z,19.50
2023-02-16T19:03:14.114Z,19.57
2023-02-16T19:08:20.181Z,18.10
2023-02-16T19:13:25.797Z,17.00
2023-02-16T19:18:32.161Z,17.23
2023-02-16T19:23:38.117Z,18.27
2023-02-16T19:28:44.503Z,17.20
2023-02-16T19:33:50.992Z,16.80
2023-02-16T19:38:56.684Z,16.57
2023-02-16T19:44:02.638Z,17.07
2023-02-16T19:49:08.853Z,18.50
2023-02-16T19:54:15.028Z,20.92
2023-02-16T19:59:20.575Z,18.83
2023-02-16T20:04:26.226Z,17.07
2023-02-16T20:09:31.690Z,15.53
2023-02-16T20:14:37.825Z,17.17
2023-02-16T20:19:43.325Z,16.20
2023-02-16T20:24:48.833Z,17.17
2023-02-16T20:29:55.892Z,18.23
2023-02-16T20:35:04.888Z,17.30
2023-02-16T20:40:11.280Z,18.27
2023-02-16T20:45:16.923Z,16.93
2023-02-16T20:50:22.454Z,17.80
2023-02-16T20:55:28.066Z,15.63
2023-02-16T21:00:33.774Z,18.60
2023-02-16T21:05:39.415Z,20.03
2023-02-16T21:10:44.967Z,18.00
2023-02-16T21:15:50.645Z,18.80
2023-02-16T21:20:56.458Z,19.90
2023-02-16T21:26:04.251Z,19.03
2023-02-16T21:31:13.383Z,19.93
2023-02-16T21:36:21.820Z,19.83
2023-02-16T21:41:29.728Z,19.80
2023-02-16T21:46:38.208Z,20.07
2023-02-16T21:51:46.766Z,20.50
2023-02-16T21:56:52.310Z,19.53
2023-02-16T22:01:59.723Z,18.67
2023-02-16T22:07:05.737Z,21.50
2023-02-16T22:12:11.486Z,23.77
2023-02-16T22:17:16.965Z,24.83
2023-02-16T22:22:22.417Z,23.53
2023-02-16T22:27:28.093Z,21.80
2023-02-16T22:32:33.638Z,23.40
2023-02-16T22:37:39.231Z,24.87
2023-02-16T22:42:44.882Z,23.47
2023-02-16T22:47:50.456Z,24.73
2023-02-16T22:52:55.851Z,22.97
2023-02-16T22:58:01.446Z,26.43
2023-02-16T23:03:06.917Z,22.60
2023-02-16T23:08:13.459Z,25.57
2023-02-16T23:13:18.931Z,24.03
2023-02-16T23:18:25.870Z,23.97
2023-02-16T23:23:31.470Z,25.20
2023-02-16T23:28:38.321Z,23.80
2023-02-16T23:33:43.957Z,26.20
2023-02-16T23:38:53.145Z,24.17
2023-02-16T23:44:00.935Z,25.63
2023-02-16T23:49:05.845Z,28.27
2023-02-16T23:54:11.673Z,24.27
2023-02-16T23:59:17.136Z,22.50
